createdAt,value
2017-09-28T00:02:10.292Z,11.70
2017-09-28T00:04:37.953Z,11.70
2017-09-28T00:07:05.516Z,11.70
2017-09-28T00:09:33.054Z,11.80
2017-09-28T00:12:00.613Z,11.70
2017-09-28T00:14:28.168Z,11.60
2017-09-28T00:16:55.729Z,11.60
2017-09-28T00:19:23.275Z,11.60
2017-09-28T00:21:51.605Z,11.60
2017-09-28T00:24:19.148Z,11.50
2017-09-28T00:26:46.688Z,11.50
2017-09-28T00:29:14.252Z,11.50
2017-09-28T00:31:41.823Z,11.40
2017-09-28T00:34:09.388Z,11.40
2017-09-28T00:36:36.929Z,11.50
2017-09-28T00:39:04.530Z,11.40
2017-09-28T00:41:32.065Z,11.40
2017-09-28T00:43:59.649Z,11.40
2017-09-28T00:46:27.205Z,11.40
2017-09-28T00:48:54.750Z,11.40
2017-09-28T00:51:22.306Z,11.30
2017-09-28T00:53:49.853Z,11.40
2017-09-28T00:56:17.394Z,11.40
2017-09-28T00:58:44.953Z,11.40
2017-09-28T01:01:12.521Z,11.50
2017-09-28T01:03:40.060Z,11.50
2017-09-28T01:06:07.605Z,11.50
2017-09-28T01:08:35.180Z,11.50
2017-09-28T01:11:02.756Z,11.50
2017-09-28T01:13:30.355Z,11.50
2017-09-28T01:15:58.656Z,11.50
2017-09-28T01:18:26.214Z,11.50
2017-09-28T01:20:53.770Z,11.50
2017-09-28T01:23:21.338Z,11.50
2017-09-28T01:25:48.920Z,11.50
2017-09-28T01:28:16.484Z,11.60
2017-09-28T01:30:44.048Z,11.50
2017-09-28T01:33:11.582Z,11.60
2017-09-28T01:35:39.139Z,11.60
2017-09-28T01:38:06.679Z,11.60
2017-09-28T01:40:34.259Z,11.50
2017-09-28T01:43:01.796Z,11.50
2017-09-28T01:45:29.358Z,11.50
2017-09-28T01:47:57.670Z,11.60
2017-09-28T01:50:25.227Z,11.60
2017-09-28T01:52:52.801Z,11.80
2017-09-28T01:55:20.359Z,12.00
2017-09-28T01:57:48.031Z,12.00
2017-09-28T02:00:15.586Z,12.00
2017-09-28T02:02:43.143Z,12.00
2017-09-28T02:05:10.713Z,11.80
2017-09-28T02:07:38.277Z,11.70
2017-09-28T02:10:05.817Z,11.70
2017-09-28T02:12:33.353Z,11.70
2017-09-28T02:15:00.954Z,11.70
2017-09-28T02:17:28.513Z,11.70
2017-09-28T02:19:56.046Z,11.70
2017-09-28T02:22:23.597Z,11.70
2017-09-28T02:24:51.179Z,11.60
2017-09-28T02:27:18.718Z,11.60
2017-09-28T02:29:46.394Z,11.70
2017-09-28T02:32:13.942Z,11.80
2017-09-28T02:34:41.511Z,11.90
2017-09-28T02:37:09.063Z,11.90
2017-09-28T02:39:36.739Z,11.80
2017-09-28T02:42:04.302Z,11.90
2017-09-28T02:44:31.858Z,11.80
2017-09-28T02:46:59.410Z,11.80
2017-09-28T02:49:26.969Z,11.70
2017-09-28T02:51:54.508Z,11.70
2017-09-28T02:54:22.065Z,11.60
2017-09-28T02:56:50.049Z,11.60
2017-09-28T02:59:17.590Z,11.60
2017-09-28T03:01:45.146Z,11.50
2017-09-28T03:04:12.685Z,11.60
2017-09-28T03:06:41.024Z,11.70
2017-09-28T03:09:08.568Z,11.70
2017-09-28T03:11:36.235Z,11.60
2017-09-28T03:14:03.785Z,11.60
2017-09-28T03:16:31.359Z,11.60
2017-09-28T03:18:58.918Z,11.60
2017-09-28T03:21:26.460Z,11.60
2017-09-28T03:23:54.022Z,11.60
2017-09-28T03:26:21.572Z,11.60
2017-09-28T03:28:49.157Z,11.70
2017-09-28T03:31:16.693Z,11.60
2017-09-28T03:33:44.252Z,11.60
2017-09-28T03:36:11.836Z,11.60
2017-09-28T03:38:39.377Z,11.60
2017-09-28T03:41:06.943Z,11.70
2017-09-28T03:43:34.493Z,11.80
2017-09-28T03:46:02.058Z,11.80
2017-09-28T03:48:29.613Z,11.90
2017-09-28T03:50:57.179Z,11.80
2017-09-28T03:53:24.733Z,11.80
2017-09-28T03:55:52.286Z,11.80
2017-09-28T03:58:19.822Z,11.70
2017-09-28T04:00:47.393Z,11.80
2017-09-28T04:03:14.940Z,11.70
2017-09-28T04:05:42.479Z,11.80
2017-09-28T04:08:10.804Z,11.70
2017-09-28T04:10:38.348Z,11.70
2017-09-28T04:13:05.921Z,11.70
2017-09-28T04:15:33.457Z,11.60
2017-09-28T04:18:01.021Z,11.70
2017-09-28T04:20:28.571Z,11.60
2017-09-28T04:22:56.138Z,11.70
2017-09-28T04:25:23.686Z,11.60
2017-09-28T04:27:51.264Z,11.60
2017-09-28T04:30:18.826Z,11.60
2017-09-28T04:32:46.363Z,11.50
2017-09-28T04:35:13.949Z,11.60
2017-09-28T04:37:42.027Z,11.50
2017-09-28T04:40:09.589Z,11.60
2017-09-28T04:42:37.165Z,11.60
2017-09-28T04:45:04.724Z,11.50
2017-09-28T04:47:32.262Z,11.50
2017-09-28T04:49:59.827Z,11.60
2017-09-28T04:52:27.360Z,11.50
2017-09-28T04:54:54.922Z,11.50
2017-09-28T04:57:22.474Z,11.60
2017-09-28T04:59:50.030Z,11.60
2017-09-28T05:02:17.572Z,11.60
2017-09-28T05:04:45.907Z,11.60
2017-09-28T05:07:13.456Z,11.50
2017-09-28T05:09:41.021Z,11.50
2017-09-28T05:12:08.568Z,11.50
2017-09-28T05:14:36.885Z,11.70
2017-09-28T05:17:04.445Z,11.60
2017-09-28T05:19:31.985Z,11.80
2017-09-28T05:21:59.537Z,11.90
2017-09-28T05:24:27.090Z,11.90
2017-09-28T05:26:54.628Z,11.90
2017-09-28T05:29:22.159Z,12.00
2017-09-28T05:31:49.721Z,12.20
2017-09-28T05:34:17.256Z,12.20
2017-09-28T05:36:44.802Z,12.50
2017-09-28T05:39:13.523Z,12.60
2017-09-28T05:41:41.065Z,12.60
2017-09-28T05:44:09.469Z,12.60
2017-09-28T05:46:37.025Z,12.60
2017-09-28T05:49:04.564Z,12.60
2017-09-28T05:51:32.113Z,12.60
2017-09-28T05:53:59.659Z,12.70
2017-09-28T05:56:27.221Z,12.60
2017-09-28T05:58:54.769Z,12.50
2017-09-28T06:01:23.165Z,12.50
2017-09-28T06:03:50.709Z,12.50
2017-09-28T06:06:19.033Z,12.60
2017-09-28T06:08:46.585Z,12.60
2017-09-28T06:11:14.175Z,12.50
2017-09-28T06:13:41.732Z,12.60
2017-09-28T06:16:09.287Z,12.70
2017-09-28T06:18:36.859Z,12.70
2017-09-28T06:21:05.930Z,12.80
2017-09-28T06:23:33.469Z,12.80
2017-09-28T06:26:01.060Z,12.80
2017-09-28T06:28:28.597Z,13.00
2017-09-28T06:30:56.155Z,13.10
2017-09-28T06:33:23.735Z,13.30
2017-09-28T06:35:51.282Z,13.50
2017-09-28T06:38:18.819Z,13.70
2017-09-28T06:40:46.371Z,13.90
2017-09-28T06:43:13.905Z,14.00
2017-09-28T06:45:42.233Z,14.30
2017-09-28T06:48:09.777Z,14.30
2017-09-28T06:50:37.361Z,14.30
2017-09-28T06:53:04.924Z,14.40
2017-09-28T06:55:32.489Z,14.50
2017-09-28T06:58:00.049Z,14.70
2017-09-28T07:00:27.578Z,14.80
2017-09-28T07:02:55.123Z,14.80
2017-09-28T07:05:22.688Z,15.00
2017-09-28T07:07:50.236Z,15.20
2017-09-28T07:10:19.457Z,15.30
2017-09-28T07:12:46.997Z,15.30
2017-09-28T07:15:15.327Z,15.40
2017-09-28T07:17:42.858Z,15.40
2017-09-28T07:20:10.408Z,15.50
2017-09-28T07:22:37.951Z,15.70
2017-09-28T07:25:06.278Z,15.90
2017-09-28T07:27:33.810Z,15.90
2017-09-28T07:30:01.386Z,15.90
2017-09-28T07:32:29.689Z,15.90
2017-09-28T07:34:57.230Z,15.90
2017-09-28T07:37:24.794Z,16.10
2017-09-28T07:39:53.105Z,16.20
2017-09-28T07:42:20.666Z,16.20
2017-09-28T07:44:48.204Z,16.60
2017-09-28T07:47:15.767Z,16.70
2017-09-28T07:49:43.316Z,16.90
2017-09-28T07:52:11.639Z,17.50
2017-09-28T07:54:39.198Z,17.50
2017-09-28T07:57:06.750Z,18.30
2017-09-28T07:59:34.290Z,18.70
2017-09-28T08:02:01.871Z,19.20
2017-09-28T08:04:29.439Z,20.10
2017-09-28T08:06:56.985Z,21.50
2017-09-28T08:09:24.643Z,22.10
2017-09-28T08:11:52.174Z,22.30
2017-09-28T08:14:19.720Z,21.80
2017-09-28T08:16:47.257Z,21.00
2017-09-28T08:19:15.590Z,21.00
2017-09-28T08:21:43.125Z,21.00
2017-09-28T08:24:10.657Z,20.40
2017-09-28T08:26:38.974Z,19.90
2017-09-28T08:29:06.509Z,19.80
2017-09-28T08:31:34.840Z,18.90
2017-09-28T08:34:02.373Z,18.90
2017-09-28T08:36:29.914Z,19.00
2017-09-28T08:38:57.456Z,19.40
2017-09-28T08:41:25.769Z,20.60
2017-09-28T08:43:53.305Z,20.50
2017-09-28T08:46:20.849Z,21.10
2017-09-28T08:48:49.147Z,21.10
2017-09-28T08:51:16.706Z,21.10
2017-09-28T08:53:44.265Z,21.70
2017-09-28T08:56:11.800Z,21.40
2017-09-28T08:58:40.115Z,21.70
2017-09-28T09:01:07.652Z,21.70
2017-09-28T09:03:35.218Z,21.60
2017-09-28T09:06:02.754Z,21.40
2017-09-28T09:08:31.074Z,21.20
2017-09-28T09:10:58.625Z,21.20
2017-09-28T09:13:26.195Z,20.80
2017-09-28T09:15:53.750Z,20.90
2017-09-28T09:18:21.290Z,21.00
2017-09-28T09:20:48.839Z,21.90
2017-09-28T09:23:16.366Z,22.50
2017-09-28T09:25:43.909Z,22.40
2017-09-28T09:28:12.237Z,23.30
2017-09-28T09:30:39.796Z,23.20
2017-09-28T09:33:07.628Z,23.70
2017-09-28T09:35:35.148Z,23.20
2017-09-28T09:38:02.717Z,23.30
2017-09-28T09:40:31.008Z,23.80
2017-09-28T09:42:58.562Z,23.80
2017-09-28T09:45:26.859Z,25.00
2017-09-28T09:47:54.417Z,24.90
2017-09-28T09:50:21.943Z,24.60
2017-09-28T09:52:49.483Z,24.40
2017-09-28T09:55:17.035Z,24.00
2017-09-28T09:57:44.563Z,24.20
2017-09-28T10:00:12.121Z,24.10
2017-09-28T10:02:39.654Z,24.10
2017-09-28T10:05:07.298Z,23.50
2017-09-28T10:07:45.969Z,22.60
2017-09-28T10:10:17.911Z,22.20
2017-09-28T10:12:54.298Z,21.60
2017-09-28T10:15:39.624Z,21.20
2017-09-28T10:18:07.145Z,20.40
2017-09-28T10:20:35.471Z,20.20
2017-09-28T10:23:03.040Z,20.20
2017-09-28T10:25:30.557Z,20.30
2017-09-28T10:27:58.099Z,20.30
2017-09-28T10:30:26.410Z,20.60
2017-09-28T10:32:53.959Z,20.50
2017-09-28T10:35:21.504Z,20.60
2017-09-28T10:37:49.799Z,20.60
2017-09-28T10:40:17.368Z,20.60
2017-09-28T10:42:44.908Z,20.50
2017-09-28T10:45:12.443Z,20.50
2017-09-28T10:47:40.014Z,20.90
2017-09-28T10:50:07.537Z,21.40
2017-09-28T10:52:35.849Z,21.70
2017-09-28T10:55:03.373Z,21.70
2017-09-28T10:57:30.956Z,22.20
2017-09-28T10:59:59.253Z,22.20
2017-09-28T11:02:26.780Z,22.20
2017-09-28T11:04:55.099Z,22.70
2017-09-28T11:07:22.649Z,22.70
2017-09-28T11:09:50.200Z,22.80
2017-09-28T11:12:17.742Z,22.90
2017-09-28T11:14:46.066Z,23.10
2017-09-28T11:17:13.604Z,23.10
2017-09-28T11:19:41.153Z,23.50
2017-09-28T11:22:08.725Z,23.70
2017-09-28T11:24:36.270Z,24.40
2017-09-28T11:27:04.597Z,24.40
2017-09-28T11:29:32.238Z,24.40
2017-09-28T11:31:59.781Z,24.60
2017-09-28T11:34:27.328Z,24.30
2017-09-28T11:36:56.146Z,23.40
2017-09-28T11:39:23.721Z,23.30
2017-09-28T11:41:51.264Z,23.40
2017-09-28T11:44:18.806Z,23.40
2017-09-28T11:46:46.368Z,23.60
2017-09-28T11:49:13.915Z,23.70
2017-09-28T11:51:41.437Z,23.70
2017-09-28T11:54:08.990Z,23.90
2017-09-28T11:56:36.605Z,24.20
2017-09-28T11:59:04.154Z,24.10
2017-09-28T12:01:31.704Z,24.20
2017-09-28T12:03:59.269Z,24.00
2017-09-28T12:06:26.818Z,23.70
2017-09-28T12:08:55.128Z,23.20
2017-09-28T12:11:22.669Z,23.10
2017-09-28T12:13:50.246Z,23.10
2017-09-28T12:16:17.802Z,23.30
2017-09-28T12:18:45.375Z,23.30
2017-09-28T12:21:12.933Z,23.20
2017-09-28T12:23:40.465Z,23.00
2017-09-28T12:26:08.042Z,23.10
2017-09-28T12:28:35.572Z,23.30
2017-09-28T12:31:03.133Z,23.20
2017-09-28T12:33:31.455Z,22.50
2017-09-28T12:35:59.008Z,22.40
2017-09-28T12:38:26.533Z,22.70
2017-09-28T12:40:54.098Z,23.40
2017-09-28T12:43:21.666Z,23.60
2017-09-28T12:45:49.225Z,23.50
2017-09-28T12:48:16.785Z,23.70
2017-09-28T12:50:44.344Z,23.60
2017-09-28T12:53:11.889Z,23.40
2017-09-28T12:55:40.238Z,23.80
2017-09-28T12:58:07.817Z,23.80
2017-09-28T13:00:35.366Z,24.40
2017-09-28T13:03:02.937Z,24.00
2017-09-28T13:05:30.464Z,23.90
2017-09-28T13:07:58.000Z,23.80
2017-09-28T13:10:25.552Z,23.90
2017-09-28T13:12:54.586Z,24.50
2017-09-28T13:15:22.154Z,24.50
2017-09-28T13:17:49.741Z,24.20
2017-09-28T13:20:17.273Z,24.30
2017-09-28T13:22:44.821Z,24.40
2017-09-28T13:25:12.374Z,24.60
2017-09-28T13:27:40.698Z,24.30
2017-09-28T13:30:08.249Z,24.30
2017-09-28T13:32:35.785Z,24.30
2017-09-28T13:35:03.346Z,24.80
2017-09-28T13:37:30.872Z,24.90
2017-09-28T13:39:58.459Z,25.10
2017-09-28T13:42:26.005Z,25.30
2017-09-28T13:44:53.561Z,24.50
2017-09-28T13:47:21.090Z,24.20
2017-09-28T13:49:49.437Z,24.40
2017-09-28T13:52:17.796Z,24.60
2017-09-28T13:54:45.316Z,24.60
2017-09-28T13:57:13.636Z,24.50
2017-09-28T13:59:41.171Z,24.50
2017-09-28T14:02:08.753Z,24.40
2017-09-28T14:04:36.284Z,24.50
2017-09-28T14:07:04.602Z,24.60
2017-09-28T14:09:32.137Z,24.60
2017-09-28T14:11:59.689Z,24.70
2017-09-28T14:14:27.234Z,24.60
2017-09-28T14:16:55.573Z,24.70
2017-09-28T14:19:23.114Z,24.70
2017-09-28T14:21:50.645Z,24.70
2017-09-28T14:24:18.213Z,24.10
2017-09-28T14:26:45.744Z,23.90
2017-09-28T14:29:14.057Z,23.90
2017-09-28T14:31:41.588Z,23.90
2017-09-28T14:34:09.900Z,24.20
2017-09-28T14:36:37.562Z,24.10
2017-09-28T14:39:05.114Z,23.90
2017-09-28T14:41:32.650Z,23.50
2017-09-28T14:44:00.218Z,23.20
2017-09-28T14:46:27.796Z,23.30
2017-09-28T14:48:55.363Z,23.40
2017-09-28T14:51:22.889Z,23.50
2017-09-28T14:53:51.200Z,23.10
2017-09-28T14:56:20.505Z,23.10
2017-09-28T14:58:48.809Z,23.20
2017-09-28T15:01:17.163Z,23.10
2017-09-28T15:03:44.693Z,23.10
2017-09-28T15:06:12.347Z,23.30
2017-09-28T15:08:39.901Z,23.10
2017-09-28T15:11:07.453Z,23.00
2017-09-28T15:13:34.998Z,22.60
2017-09-28T15:16:02.541Z,22.80
2017-09-28T15:18:30.858Z,22.30
2017-09-28T15:20:58.383Z,22.30
2017-09-28T15:23:26.691Z,22.10
2017-09-28T15:25:54.238Z,22.10
2017-09-28T15:28:21.778Z,22.20
2017-09-28T15:30:50.095Z,22.20
2017-09-28T15:33:17.640Z,22.10
2017-09-28T15:35:45.189Z,22.10
2017-09-28T15:38:12.734Z,21.90
2017-09-28T15:40:40.299Z,21.80
2017-09-28T15:43:07.835Z,21.70
2017-09-28T15:45:35.389Z,21.70
2017-09-28T15:48:02.930Z,21.60
2017-09-28T15:50:31.225Z,21.30
2017-09-28T15:52:58.783Z,21.30
2017-09-28T15:55:26.345Z,21.30
2017-09-28T15:57:53.941Z,21.30
2017-09-28T16:00:21.481Z,21.30
2017-09-28T16:02:49.037Z,21.20
2017-09-28T16:05:16.603Z,21.20
2017-09-28T16:07:44.130Z,21.20
2017-09-28T16:10:12.534Z,21.10
2017-09-28T16:12:40.093Z,21.10
2017-09-28T16:15:07.658Z,21.10
2017-09-28T16:17:35.225Z,21.20
2017-09-28T16:20:02.761Z,21.20
2017-09-28T16:22:30.309Z,21.20
2017-09-28T16:24:58.612Z,21.10
2017-09-28T16:27:26.574Z,21.10
2017-09-28T16:29:54.125Z,21.10
2017-09-28T16:32:21.685Z,21.00
2017-09-28T16:34:49.247Z,21.00
2017-09-28T16:37:16.819Z,20.90
2017-09-28T16:39:44.382Z,20.80
2017-09-28T16:42:11.911Z,20.70
2017-09-28T16:44:40.450Z,20.40
2017-09-28T16:47:08.016Z,20.30
2017-09-28T16:49:35.542Z,20.20
2017-09-28T16:52:03.103Z,20.10
2017-09-28T16:54:30.646Z,19.90
2017-09-28T16:56:58.199Z,19.70
2017-09-28T16:59:25.758Z,19.60
2017-09-28T17:01:54.066Z,19.30
2017-09-28T17:04:21.794Z,19.30
2017-09-28T17:06:50.089Z,18.90
2017-09-28T17:09:17.659Z,18.90
2017-09-28T17:11:45.234Z,18.80
2017-09-28T17:14:12.794Z,18.60
2017-09-28T17:16:40.331Z,18.60
2017-09-28T17:19:08.068Z,18.50
2017-09-28T17:21:37.262Z,18.20
2017-09-28T17:24:05.562Z,18.10
2017-09-28T17:26:33.142Z,18.10
2017-09-28T17:29:00.673Z,18.00
2017-09-28T17:31:29.299Z,17.90
2017-09-28T17:33:56.862Z,17.90
2017-09-28T17:36:24.399Z,17.80
2017-09-28T17:38:51.958Z,17.70
2017-09-28T17:41:19.497Z,17.60
2017-09-28T17:43:47.817Z,17.60
2017-09-28T17:46:15.365Z,17.60
2017-09-28T17:48:42.954Z,17.50
2017-09-28T17:51:10.584Z,17.40
2017-09-28T17:53:38.160Z,17.40
2017-09-28T17:56:05.702Z,17.30
2017-09-28T17:58:33.238Z,17.20
2017-09-28T18:01:00.797Z,17.20
2017-09-28T18:03:29.100Z,17.10
2017-09-28T18:05:56.666Z,17.10
2017-09-28T18:08:24.229Z,17.00
2017-09-28T18:10:51.769Z,17.00
2017-09-28T18:13:19.306Z,16.90
2017-09-28T18:15:47.646Z,16.70
2017-09-28T18:18:15.181Z,16.70
2017-09-28T18:20:42.762Z,16.70
2017-09-28T18:23:10.316Z,16.60
2017-09-28T18:25:37.858Z,16.50
2017-09-28T18:28:05.434Z,16.50
2017-09-28T18:30:32.972Z,16.40
2017-09-28T18:33:00.539Z,16.40
2017-09-28T18:35:28.129Z,16.30
2017-09-28T18:37:55.691Z,16.30
2017-09-28T18:40:23.271Z,16.30
2017-09-28T18:42:50.881Z,16.20
2017-09-28T18:45:18.441Z,16.20
2017-09-28T18:47:46.022Z,16.10
2017-09-28T18:50:13.566Z,16.10
2017-09-28T18:52:41.172Z,16.10
2017-09-28T18:55:08.735Z,16.10
2017-09-28T18:57:36.293Z,16.00
2017-09-28T19:00:03.825Z,16.00
2017-09-28T19:02:31.361Z,16.00
2017-09-28T19:04:58.925Z,16.00
2017-09-28T19:07:26.467Z,16.00
2017-09-28T19:09:54.068Z,16.00
2017-09-28T19:12:21.629Z,16.00
2017-09-28T19:14:49.190Z,15.90
2017-09-28T19:17:16.793Z,15.80
2017-09-28T19:19:44.323Z,15.90
2017-09-28T19:22:11.868Z,15.80
2017-09-28T19:24:39.503Z,15.80
2017-09-28T19:27:07.039Z,15.80
2017-09-28T19:29:34.579Z,15.80
2017-09-28T19:32:02.931Z,15.80
2017-09-28T19:34:30.490Z,15.70
2017-09-28T19:36:58.094Z,15.70
2017-09-28T19:39:25.637Z,15.80
2017-09-28T19:41:53.986Z,15.90
2017-09-28T19:44:22.327Z,15.90
2017-09-28T19:46:49.889Z,15.90
2017-09-28T19:49:17.427Z,15.90
2017-09-28T19:51:45.718Z,16.00
2017-09-28T19:54:13.337Z,16.00
2017-09-28T19:56:40.877Z,15.90
2017-09-28T19:59:09.699Z,15.90
2017-09-28T20:01:38.063Z,15.80
2017-09-28T20:04:05.625Z,15.80
2017-09-28T20:06:33.161Z,15.80
2017-09-28T20:09:00.717Z,15.80
2017-09-28T20:11:28.267Z,15.70
2017-09-28T20:13:55.819Z,15.80
2017-09-28T20:16:23.369Z,15.80
2017-09-28T20:18:50.940Z,15.80
2017-09-28T20:21:18.485Z,15.80
2017-09-28T20:23:46.030Z,15.80
2017-09-28T20:26:13.645Z,15.90
2017-09-28T20:28:41.276Z,15.90
2017-09-28T20:31:09.262Z,15.80
2017-09-28T20:33:36.821Z,15.80
2017-09-28T20:36:04.392Z,15.80
2017-09-28T20:38:31.942Z,15.70
2017-09-28T20:40:59.483Z,15.80
2017-09-28T20:43:27.146Z,15.70
2017-09-28T20:45:54.703Z,15.70
2017-09-28T20:48:22.237Z,15.70
2017-09-28T20:50:49.825Z,15.70
2017-09-28T20:53:17.387Z,15.70
2017-09-28T20:55:45.701Z,15.70
2017-09-28T20:58:13.285Z,15.70
2017-09-28T21:00:40.835Z,15.60
2017-09-28T21:03:08.400Z,15.60
2017-09-28T21:05:35.957Z,15.50
2017-09-28T21:08:03.518Z,15.50
2017-09-28T21:10:31.064Z,15.50
2017-09-28T21:12:58.679Z,15.40
2017-09-28T21:15:26.227Z,15.40
2017-09-28T21:17:53.860Z,15.40
2017-09-28T21:20:21.409Z,15.40
2017-09-28T21:22:48.959Z,15.30
2017-09-28T21:25:16.535Z,15.30
2017-09-28T21:27:44.072Z,15.30
2017-09-28T21:30:11.634Z,15.20
2017-09-28T21:32:39.195Z,15.20
2017-09-28T21:35:06.732Z,15.10
2017-09-28T21:37:34.285Z,15.10
2017-09-28T21:40:01.863Z,15.00
2017-09-28T21:42:30.171Z,14.80
2017-09-28T21:44:57.843Z,14.80
2017-09-28T21:47:25.504Z,14.70
2017-09-28T21:49:53.068Z,14.70
2017-09-28T21:52:20.621Z,14.70
2017-09-28T21:54:48.201Z,14.60
2017-09-28T21:57:15.757Z,14.50
2017-09-28T21:59:43.304Z,14.50
2017-09-28T22:02:10.865Z,14.50
2017-09-28T22:04:38.394Z,14.60
2017-09-28T22:07:06.711Z,14.50
2017-09-28T22:09:34.331Z,14.40
2017-09-28T22:12:02.640Z,14.40
2017-09-28T22:14:30.217Z,14.30
2017-09-28T22:16:57.773Z,14.40
2017-09-28T22:19:25.333Z,14.40
2017-09-28T22:21:52.925Z,14.40
2017-09-28T22:24:20.456Z,14.40
2017-09-28T22:26:48.015Z,14.30
2017-09-28T22:29:15.549Z,14.40
2017-09-28T22:31:43.119Z,14.40
2017-09-28T22:34:10.658Z,14.40
2017-09-28T22:36:38.208Z,14.40
2017-09-28T22:39:05.746Z,14.40
2017-09-28T22:41:34.081Z,14.40
2017-09-28T22:44:01.626Z,14.40
2017-09-28T22:46:29.194Z,14.40
2017-09-28T22:48:56.743Z,14.30
2017-09-28T22:51:24.362Z,14.30
2017-09-28T22:53:51.941Z,14.30
2017-09-28T22:56:20.424Z,14.30
2017-09-28T22:58:48.003Z,14.30
2017-09-28T23:01:15.565Z,14.20
2017-09-28T23:03:43.123Z,14.20
2017-09-28T23:06:10.666Z,14.10
2017-09-28T23:08:38.273Z,14.00
2017-09-28T23:11:05.805Z,14.00
2017-09-28T23:13:33.397Z,14.10
2017-09-28T23:16:01.729Z,14.00
2017-09-28T23:18:29.262Z,14.00
2017-09-28T23:20:56.832Z,14.00
2017-09-28T23:23:24.394Z,14.00
2017-09-28T23:25:51.974Z,13.90
2017-09-28T23:28:19.518Z,13.90
2017-09-28T23:30:47.080Z,13.90
2017-09-28T23:33:14.627Z,13.90
2017-09-28T23:35:42.187Z,13.90
2017-09-28T23:38:09.725Z,14.00
2017-09-28T23:40:38.064Z,14.00
2017-09-28T23:43:05.600Z,14.00
2017-09-28T23:45:33.166Z,14.10
2017-09-28T23:48:00.720Z,14.00
2017-09-28T23:50:28.381Z,14.00
2017-09-28T23:52:55.942Z,14.00
2017-09-28T23:55:23.507Z,14.00
2017-09-28T23:57:51.058Z,14.00
